sensor_id;sensor_type;location;lat;lon;timestamp;P1;durP1;ratioP1;P2;durP2;ratioP2
11691;SDS011;33659;42.672;23.354;2023-07-08T00:00:51;14.10;;;9.02;;
11691;SDS011;33659;42.672;23.354;2023-07-08T00:03:19;11.48;;;8.27;;
11691;SDS011;33659;42.672;23.354;2023-07-08T00:05:47;12.23;;;9.50;;
11691;SDS011;33659;42.672;23.354;2023-07-08T00:08:14;12.68;;;9.52;;
11691;SDS011;33659;42.672;23.354;2023-07-08T00:10:42;10.88;;;8.88;;
11691;SDS011;33659;42.672;23.354;2023-07-08T00:13:09;11.00;;;9.48;;
11691;SDS011;33659;42.672;23.354;2023-07-08T00:15:40;10.77;;;9.40;;
11691;SDS011;33659;42.672;23.354;2023-07-08T00:18:09;14.10;;;9.63;;
11691;SDS011;33659;42.672;23.354;2023-07-08T00:20:39;10.68;;;9.55;;
11691;SDS011;33659;42.672;23.354;2023-07-08T00:23:07;13.30;;;9.95;;
11691;SDS011;33659;42.672;23.354;2023-07-08T00:25:35;11.00;;;9.73;;
11691;SDS011;33659;42.672;23.354;2023-07-08T00:28:01;14.38;;;10.32;;
11691;SDS011;33659;42.672;23.354;2023-07-08T00:30:31;13.40;;;9.43;;
11691;SDS011;33659;42.672;23.354;2023-07-08T00:33:00;11.45;;;9.35;;
11691;SDS011;33659;42.672;23.354;2023-07-08T00:35:28;12.38;;;9.23;;
11691;SDS011;33659;42.672;23.354;2023-07-08T00:37:57;12.48;;;9.18;;
11691;SDS011;33659;42.672;23.354;2023-07-08T00:40:27;11.13;;;9.18;;
11691;SDS011;33659;42.672;23.354;2023-07-08T00:42:55;9.95;;;8.80;;
11691;SDS011;33659;42.672;23.354;2023-07-08T00:45:29;10.63;;;9.10;;
11691;SDS011;33659;42.672;23.354;2023-07-08T00:48:07;12.77;;;8.90;;
11691;SDS011;33659;42.672;23.354;2023-07-08T00:50:40;12.05;;;9.68;;
11691;SDS011;33659;42.672;23.354;2023-07-08T00:53:22;12.77;;;9.23;;
11691;SDS011;33659;42.672;23.354;2023-07-08T00:55:50;16.73;;;9.80;;
11691;SDS011;33659;42.672;23.354;2023-07-08T00:58:19;10.30;;;8.60;;
11691;SDS011;33659;42.672;23.354;2023-07-08T01:00:49;10.52;;;8.38;;
11691;SDS011;33659;42.672;23.354;2023-07-08T01:03:19;9.63;;;8.68;;
11691;SDS011;33659;42.672;23.354;2023-07-08T01:05:47;11.88;;;9.40;;
11691;SDS011;33659;42.672;23.354;2023-07-08T01:08:15;9.23;;;8.32;;
11691;SDS011;33659;42.672;23.354;2023-07-08T01:10:43;14.90;;;9.88;;
11691;SDS011;33659;42.672;23.354;2023-07-08T01:13:15;10.07;;;8.57;;
11691;SDS011;33659;42.672;23.354;2023-07-08T01:15:43;15.32;;;8.43;;
11691;SDS011;33659;42.672;23.354;2023-07-08T01:18:15;9.65;;;8.65;;
11691;SDS011;33659;42.672;23.354;2023-07-08T01:20:47;13.55;;;8.23;;
11691;SDS011;33659;42.672;23.354;2023-07-08T01:23:15;11.40;;;8.55;;
11691;SDS011;33659;42.672;23.354;2023-07-08T01:25:43;10.90;;;8.38;;
11691;SDS011;33659;42.672;23.354;2023-07-08T01:28:11;9.30;;;7.55;;
11691;SDS011;33659;42.672;23.354;2023-07-08T01:30:40;13.98;;;8.63;;
11691;SDS011;33659;42.672;23.354;2023-07-08T01:33:15;12.10;;;8.70;;
11691;SDS011;33659;42.672;23.354;2023-07-08T01:35:44;9.35;;;8.25;;
11691;SDS011;33659;42.672;23.354;2023-07-08T01:38:16;9.85;;;8.85;;
11691;SDS011;33659;42.672;23.354;2023-07-08T01:40:50;10.18;;;9.05;;
11691;SDS011;33659;42.672;23.354;2023-07-08T01:43:18;10.80;;;8.05;;
11691;SDS011;33659;42.672;23.354;2023-07-08T01:45:45;11.43;;;8.70;;
11691;SDS011;33659;42.672;23.354;2023-07-08T01:48:14;15.10;;;8.85;;
11691;SDS011;33659;42.672;23.354;2023-07-08T01:50:45;10.90;;;8.73;;
11691;SDS011;33659;42.672;23.354;2023-07-08T01:53:17;10.25;;;8.30;;
11691;SDS011;33659;42.672;23.354;2023-07-08T01:55:46;10.65;;;9.00;;
11691;SDS011;33659;42.672;23.354;2023-07-08T01:58:13;13.88;;;9.13;;
11691;SDS011;33659;42.672;23.354;2023-07-08T02:00:39;8.98;;;8.07;;
11691;SDS011;33659;42.672;23.354;2023-07-08T02:03:07;11.10;;;8.07;;
11691;SDS011;33659;42.672;23.354;2023-07-08T02:05:35;13.10;;;8.48;;
11691;SDS011;33659;42.672;23.354;2023-07-08T02:08:01;10.30;;;8.00;;
11691;SDS011;33659;42.672;23.354;2023-07-08T02:10:29;12.27;;;7.75;;
11691;SDS011;33659;42.672;23.354;2023-07-08T02:12:56;9.95;;;8.48;;
11691;SDS011;33659;42.672;23.354;2023-07-08T02:15:25;11.70;;;7.82;;
11691;SDS011;33659;42.672;23.354;2023-07-08T02:17:51;9.70;;;8.15;;
11691;SDS011;33659;42.672;23.354;2023-07-08T02:20:18;10.63;;;7.88;;
11691;SDS011;33659;42.672;23.354;2023-07-08T02:22:45;12.32;;;8.15;;
11691;SDS011;33659;42.672;23.354;2023-07-08T02:25:11;9.02;;;7.80;;
11691;SDS011;33659;42.672;23.354;2023-07-08T02:27:39;11.52;;;7.97;;
11691;SDS011;33659;42.672;23.354;2023-07-08T02:30:06;8.65;;;7.75;;
11691;SDS011;33659;42.672;23.354;2023-07-08T02:32:34;9.80;;;7.13;;
11691;SDS011;33659;42.672;23.354;2023-07-08T02:35:03;9.30;;;7.57;;
11691;SDS011;33659;42.672;23.354;2023-07-08T02:37:30;10.65;;;7.15;;
11691;SDS011;33659;42.672;23.354;2023-07-08T02:39:58;10.38;;;7.20;;
11691;SDS011;33659;42.672;23.354;2023-07-08T02:42:25;9.10;;;7.22;;
11691;SDS011;33659;42.672;23.354;2023-07-08T02:44:53;9.35;;;7.60;;
11691;SDS011;33659;42.672;23.354;2023-07-08T02:47:19;8.90;;;7.68;;
11691;SDS011;33659;42.672;23.354;2023-07-08T02:49:46;10.75;;;8.32;;
11691;SDS011;33659;42.672;23.354;2023-07-08T02:52:13;8.98;;;7.60;;
11691;SDS011;33659;42.672;23.354;2023-07-08T02:54:39;8.70;;;7.32;;
11691;SDS011;33659;42.672;23.354;2023-07-08T02:57:06;7.93;;;7.22;;
11691;SDS011;33659;42.672;23.354;2023-07-08T02:59:33;8.13;;;7.32;;
11691;SDS011;33659;42.672;23.354;2023-07-08T03:02:01;9.02;;;7.72;;
11691;SDS011;33659;42.672;23.354;2023-07-08T03:04:29;12.65;;;8.70;;
11691;SDS011;33659;42.672;23.354;2023-07-08T03:06:55;9.48;;;7.32;;
11691;SDS011;33659;42.672;23.354;2023-07-08T03:09:22;9.85;;;8.00;;
11691;SDS011;33659;42.672;23.354;2023-07-08T03:11:49;9.80;;;7.60;;
11691;SDS011;33659;42.672;23.354;2023-07-08T03:14:15;10.00;;;7.85;;
11691;SDS011;33659;42.672;23.354;2023-07-08T03:16:42;12.23;;;8.05;;
11691;SDS011;33659;42.672;23.354;2023-07-08T03:19:11;9.25;;;7.97;;
11691;SDS011;33659;42.672;23.354;2023-07-08T03:21:40;9.35;;;6.93;;
11691;SDS011;33659;42.672;23.354;2023-07-08T03:24:08;10.05;;;7.85;;
11691;SDS011;33659;42.672;23.354;2023-07-08T03:26:37;8.05;;;7.03;;
11691;SDS011;33659;42.672;23.354;2023-07-08T03:29:04;9.30;;;7.38;;
11691;SDS011;33659;42.672;23.354;2023-07-08T03:31:31;10.48;;;7.28;;
11691;SDS011;33659;42.672;23.354;2023-07-08T03:33:57;9.10;;;7.40;;
11691;SDS011;33659;42.672;23.354;2023-07-08T03:36:25;6.93;;;6.20;;
11691;SDS011;33659;42.672;23.354;2023-07-08T03:38:53;8.50;;;6.30;;
11691;SDS011;33659;42.672;23.354;2023-07-08T03:41:21;8.68;;;6.32;;
11691;SDS011;33659;42.672;23.354;2023-07-08T03:43:48;7.90;;;6.30;;
11691;SDS011;33659;42.672;23.354;2023-07-08T03:46:17;7.60;;;6.40;;
11691;SDS011;33659;42.672;23.354;2023-07-08T03:48:45;7.28;;;6.13;;
11691;SDS011;33659;42.672;23.354;2023-07-08T03:51:13;9.38;;;6.25;;
11691;SDS011;33659;42.672;23.354;2023-07-08T03:53:47;9.77;;;6.65;;
11691;SDS011;33659;42.672;23.354;2023-07-08T03:56:14;7.15;;;6.13;;
11691;SDS011;33659;42.672;23.354;2023-07-08T03:58:41;8.32;;;6.50;;
11691;SDS011;33659;42.672;23.354;2023-07-08T04:01:09;6.93;;;5.80;;
11691;SDS011;33659;42.672;23.354;2023-07-08T04:03:41;11.68;;;6.55;;
11691;SDS011;33659;42.672;23.354;2023-07-08T04:06:08;7.82;;;6.18;;
11691;SDS011;33659;42.672;23.354;2023-07-08T04:08:35;8.10;;;6.35;;
11691;SDS011;33659;42.672;23.354;2023-07-08T04:11:03;6.15;;;5.55;;
11691;SDS011;33659;42.672;23.354;2023-07-08T04:13:29;6.63;;;5.88;;
11691;SDS011;33659;42.672;23.354;2023-07-08T04:15:57;6.93;;;5.40;;
11691;SDS011;33659;42.672;23.354;2023-07-08T04:18:27;6.95;;;6.22;;
11691;SDS011;33659;42.672;23.354;2023-07-08T04:20:54;7.10;;;5.50;;
11691;SDS011;33659;42.672;23.354;2023-07-08T04:23:21;7.30;;;5.40;;
11691;SDS011;33659;42.672;23.354;2023-07-08T04:25:48;10.00;;;5.35;;
11691;SDS011;33659;42.672;23.354;2023-07-08T04:28:18;9.45;;;6.10;;
11691;SDS011;33659;42.672;23.354;2023-07-08T04:30:45;6.38;;;5.53;;
11691;SDS011;33659;42.672;23.354;2023-07-08T04:33:12;8.77;;;5.65;;
11691;SDS011;33659;42.672;23.354;2023-07-08T04:35:40;6.88;;;5.15;;
11691;SDS011;33659;42.672;23.354;2023-07-08T04:38:09;6.70;;;6.03;;
11691;SDS011;33659;42.672;23.354;2023-07-08T04:40:40;7.38;;;5.38;;
11691;SDS011;33659;42.672;23.354;2023-07-08T04:43:07;6.97;;;5.97;;
11691;SDS011;33659;42.672;23.354;2023-07-08T04:45:37;7.20;;;6.13;;
11691;SDS011;33659;42.672;23.354;2023-07-08T04:48:04;6.72;;;5.80;;
11691;SDS011;33659;42.672;23.354;2023-07-08T04:50:37;7.28;;;5.70;;
11691;SDS011;33659;42.672;23.354;2023-07-08T04:53:05;6.50;;;5.90;;
11691;SDS011;33659;42.672;23.354;2023-07-08T04:55:31;7.00;;;5.63;;
11691;SDS011;33659;42.672;23.354;2023-07-08T04:57:58;6.97;;;6.28;;
11691;SDS011;33659;42.672;23.354;2023-07-08T05:00:27;9.00;;;5.65;;
11691;SDS011;33659;42.672;23.354;2023-07-08T05:02:55;6.40;;;5.57;;
11691;SDS011;33659;42.672;23.354;2023-07-08T05:05:22;10.35;;;6.00;;
11691;SDS011;33659;42.672;23.354;2023-07-08T05:07:49;7.78;;;5.82;;
11691;SDS011;33659;42.672;23.354;2023-07-08T05:10:16;7.93;;;5.80;;
11691;SDS011;33659;42.672;23.354;2023-07-08T05:12:43;8.27;;;6.00;;
11691;SDS011;33659;42.672;23.354;2023-07-08T05:15:10;11.25;;;6.18;;
11691;SDS011;33659;42.672;23.354;2023-07-08T05:17:38;6.70;;;6.03;;
11691;SDS011;33659;42.672;23.354;2023-07-08T05:20:08;10.07;;;6.55;;
11691;SDS011;33659;42.672;23.354;2023-07-08T05:22:36;8.90;;;6.38;;
11691;SDS011;33659;42.672;23.354;2023-07-08T05:25:03;6.47;;;5.78;;
11691;SDS011;33659;42.672;23.354;2023-07-08T05:27:31;8.27;;;5.75;;
11691;SDS011;33659;42.672;23.354;2023-07-08T05:29:59;6.82;;;5.97;;
11691;SDS011;33659;42.672;23.354;2023-07-08T05:32:26;6.68;;;5.88;;
11691;SDS011;33659;42.672;23.354;2023-07-08T05:34:53;7.75;;;6.07;;
11691;SDS011;33659;42.672;23.354;2023-07-08T05:37:21;7.38;;;6.32;;
11691;SDS011;33659;42.672;23.354;2023-07-08T05:39:50;11.43;;;5.78;;
11691;SDS011;33659;42.672;23.354;2023-07-08T05:42:17;5.70;;;5.10;;
11691;SDS011;33659;42.672;23.354;2023-07-08T05:44:44;5.78;;;5.20;;
11691;SDS011;33659;42.672;23.354;2023-07-08T05:47:10;6.35;;;5.38;;
11691;SDS011;33659;42.672;23.354;2023-07-08T05:49:38;8.13;;;5.97;;
11691;SDS011;33659;42.672;23.354;2023-07-08T05:52:05;8.30;;;5.60;;
11691;SDS011;33659;42.672;23.354;2023-07-08T05:54:37;8.32;;;6.00;;
11691;SDS011;33659;42.672;23.354;2023-07-08T05:57:04;8.43;;;5.70;;
11691;SDS011;33659;42.672;23.354;2023-07-08T05:59:32;6.32;;;5.53;;
11691;SDS011;33659;42.672;23.354;2023-07-08T06:01:59;7.05;;;5.80;;
11691;SDS011;33659;42.672;23.354;2023-07-08T06:04:25;7.38;;;5.65;;
11691;SDS011;33659;42.672;23.354;2023-07-08T06:06:53;6.50;;;5.80;;
11691;SDS011;33659;42.672;23.354;2023-07-08T06:09:20;7.20;;;5.22;;
11691;SDS011;33659;42.672;23.354;2023-07-08T06:11:48;8.52;;;5.43;;
11691;SDS011;33659;42.672;23.354;2023-07-08T06:14:14;8.60;;;5.88;;
11691;SDS011;33659;42.672;23.354;2023-07-08T06:16:41;6.30;;;5.70;;
11691;SDS011;33659;42.672;23.354;2023-07-08T06:19:08;10.00;;;6.53;;
11691;SDS011;33659;42.672;23.354;2023-07-08T06:21:35;8.93;;;6.35;;
11691;SDS011;33659;42.672;23.354;2023-07-08T06:24:02;8.32;;;6.30;;
11691;SDS011;33659;42.672;23.354;2023-07-08T06:26:28;9.25;;;6.60;;
11691;SDS011;33659;42.672;23.354;2023-07-08T06:28:57;7.95;;;5.90;;
11691;SDS011;33659;42.672;23.354;2023-07-08T06:31:23;8.82;;;5.97;;
11691;SDS011;33659;42.672;23.354;2023-07-08T06:33:50;8.38;;;5.25;;
11691;SDS011;33659;42.672;23.354;2023-07-08T06:36:17;9.68;;;5.28;;
11691;SDS011;33659;42.672;23.354;2023-07-08T06:38:43;5.88;;;5.25;;
11691;SDS011;33659;42.672;23.354;2023-07-08T06:41:10;6.85;;;5.47;;
11691;SDS011;33659;42.672;23.354;2023-07-08T06:43:37;7.45;;;4.78;;
11691;SDS011;33659;42.672;23.354;2023-07-08T06:46:05;7.85;;;4.80;;
11691;SDS011;33659;42.672;23.354;2023-07-08T06:48:32;6.60;;;5.30;;
11691;SDS011;33659;42.672;23.354;2023-07-08T06:50:58;6.18;;;4.95;;
11691;SDS011;33659;42.672;23.354;2023-07-08T06:53:25;5.18;;;4.63;;
11691;SDS011;33659;42.672;23.354;2023-07-08T06:55:52;8.77;;;4.70;;
11691;SDS011;33659;42.672;23.354;2023-07-08T06:58:19;6.05;;;4.65;;
11691;SDS011;33659;42.672;23.354;2023-07-08T07:00:46;6.80;;;5.07;;
11691;SDS011;33659;42.672;23.354;2023-07-08T07:03:14;5.90;;;4.82;;
11691;SDS011;33659;42.672;23.354;2023-07-08T07:05:40;7.90;;;5.18;;
11691;SDS011;33659;42.672;23.354;2023-07-08T07:08:07;6.78;;;4.75;;
11691;SDS011;33659;42.672;23.354;2023-07-08T07:10:34;5.68;;;4.97;;
11691;SDS011;33659;42.672;23.354;2023-07-08T07:13:00;5.65;;;4.90;;
11691;SDS011;33659;42.672;23.354;2023-07-08T07:15:27;6.00;;;5.25;;
11691;SDS011;33659;42.672;23.354;2023-07-08T07:17:55;8.40;;;5.25;;
11691;SDS011;33659;42.672;23.354;2023-07-08T07:20:24;6.93;;;5.55;;
11691;SDS011;33659;42.672;23.354;2023-07-08T07:22:51;5.95;;;5.07;;
11691;SDS011;33659;42.672;23.354;2023-07-08T07:25:18;6.00;;;4.75;;
11691;SDS011;33659;42.672;23.354;2023-07-08T07:27:45;6.75;;;5.57;;
11691;SDS011;33659;42.672;23.354;2023-07-08T07:30:12;6.82;;;5.55;;
11691;SDS011;33659;42.672;23.354;2023-07-08T07:32:40;5.53;;;4.88;;
11691;SDS011;33659;42.672;23.354;2023-07-08T07:35:07;6.78;;;5.32;;
11691;SDS011;33659;42.672;23.354;2023-07-08T07:37:39;5.50;;;4.88;;
11691;SDS011;33659;42.672;23.354;2023-07-08T07:40:07;5.35;;;4.72;;
11691;SDS011;33659;42.672;23.354;2023-07-08T07:42:37;5.40;;;4.90;;
11691;SDS011;33659;42.672;23.354;2023-07-08T07:45:05;5.75;;;5.25;;
11691;SDS011;33659;42.672;23.354;2023-07-08T07:47:32;5.45;;;4.53;;
11691;SDS011;33659;42.672;23.354;2023-07-08T07:49:59;6.30;;;5.35;;
11691;SDS011;33659;42.672;23.354;2023-07-08T07:52:25;5.15;;;4.63;;
11691;SDS011;33659;42.672;23.354;2023-07-08T07:54:53;6.03;;;4.78;;
11691;SDS011;33659;42.672;23.354;2023-07-08T07:57:21;5.13;;;4.63;;
11691;SDS011;33659;42.672;23.354;2023-07-08T07:59:48;7.95;;;4.90;;
11691;SDS011;33659;42.672;23.354;2023-07-08T08:02:15;8.13;;;4.93;;
11691;SDS011;33659;42.672;23.354;2023-07-08T08:04:42;8.00;;;4.50;;
11691;SDS011;33659;42.672;23.354;2023-07-08T08:07:08;4.47;;;4.07;;
11691;SDS011;33659;42.672;23.354;2023-07-08T08:09:36;7.80;;;4.95;;
11691;SDS011;33659;42.672;23.354;2023-07-08T08:12:06;6.80;;;4.65;;
11691;SDS011;33659;42.672;23.354;2023-07-08T08:14:34;6.38;;;4.75;;
11691;SDS011;33659;42.672;23.354;2023-07-08T08:17:01;6.88;;;4.90;;
11691;SDS011;33659;42.672;23.354;2023-07-08T08:19:28;6.15;;;4.80;;
11691;SDS011;33659;42.672;23.354;2023-07-08T08:21:55;5.97;;;4.55;;
11691;SDS011;33659;42.672;23.354;2023-07-08T08:24:22;5.97;;;5.38;;
11691;SDS011;33659;42.672;23.354;2023-07-08T08:26:49;5.80;;;5.00;;
11691;SDS011;33659;42.672;23.354;2023-07-08T08:29:17;6.97;;;4.38;;
11691;SDS011;33659;42.672;23.354;2023-07-08T08:31:43;5.53;;;4.90;;
11691;SDS011;33659;42.672;23.354;2023-07-08T08:34:10;8.07;;;5.28;;
11691;SDS011;33659;42.672;23.354;2023-07-08T08:36:37;5.53;;;5.00;;
11691;SDS011;33659;42.672;23.354;2023-07-08T08:39:04;6.85;;;5.68;;
11691;SDS011;33659;42.672;23.354;2023-07-08T08:41:31;8.55;;;4.93;;
11691;SDS011;33659;42.672;23.354;2023-07-08T08:44:01;5.55;;;5.05;;
11691;SDS011;33659;42.672;23.354;2023-07-08T08:46:34;9.02;;;5.15;;
11691;SDS011;33659;42.672;23.354;2023-07-08T08:49:09;5.32;;;4.82;;
11691;SDS011;33659;42.672;23.354;2023-07-08T08:51:42;7.25;;;5.10;;
11691;SDS011;33659;42.672;23.354;2023-07-08T08:54:09;6.88;;;5.38;;
11691;SDS011;33659;42.672;23.354;2023-07-08T08:56:38;7.00;;;5.10;;
11691;SDS011;33659;42.672;23.354;2023-07-08T08:59:14;6.85;;;5.60;;
11691;SDS011;33659;42.672;23.354;2023-07-08T09:01:49;6.90;;;4.88;;
11691;SDS011;33659;42.672;23.354;2023-07-08T09:04:19;5.80;;;5.13;;
11691;SDS011;33659;42.672;23.354;2023-07-08T09:06:49;6.22;;;5.25;;
11691;SDS011;33659;42.672;23.354;2023-07-08T09:09:19;6.95;;;4.90;;
11691;SDS011;33659;42.672;23.354;2023-07-08T09:11:51;5.57;;;4.53;;
11691;SDS011;33659;42.672;23.354;2023-07-08T09:14:24;5.07;;;4.10;;
11691;SDS011;33659;42.672;23.354;2023-07-08T09:16:56;10.27;;;4.65;;
11691;SDS011;33659;42.672;23.354;2023-07-08T09:19:33;6.35;;;4.75;;
11691;SDS011;33659;42.672;23.354;2023-07-08T09:22:07;5.25;;;4.75;;
11691;SDS011;33659;42.672;23.354;2023-07-08T09:24:41;6.50;;;4.88;;
11691;SDS011;33659;42.672;23.354;2023-07-08T09:27:11;8.88;;;5.07;;
11691;SDS011;33659;42.672;23.354;2023-07-08T09:29:38;6.50;;;5.35;;
11691;SDS011;33659;42.672;23.354;2023-07-08T09:32:13;6.35;;;5.10;;
11691;SDS011;33659;42.672;23.354;2023-07-08T09:34:43;6.82;;;4.85;;
11691;SDS011;33659;42.672;23.354;2023-07-08T09:37:21;5.43;;;4.93;;
11691;SDS011;33659;42.672;23.354;2023-07-08T09:39:51;5.40;;;4.63;;
11691;SDS011;33659;42.672;23.354;2023-07-08T09:42:19;5.10;;;4.60;;
11691;SDS011;33659;42.672;23.354;2023-07-08T09:44:48;5.13;;;4.63;;
11691;SDS011;33659;42.672;23.354;2023-07-08T09:47:25;5.20;;;4.50;;
11691;SDS011;33659;42.672;23.354;2023-07-08T09:49:56;7.43;;;4.75;;
11691;SDS011;33659;42.672;23.354;2023-07-08T09:52:24;5.90;;;4.30;;
11691;SDS011;33659;42.672;23.354;2023-07-08T09:54:52;4.68;;;4.20;;
11691;SDS011;33659;42.672;23.354;2023-07-08T09:57:21;5.05;;;4.50;;
11691;SDS011;33659;42.672;23.354;2023-07-08T09:59:54;4.13;;;3.63;;
11691;SDS011;33659;42.672;23.354;2023-07-08T10:02:30;5.95;;;5.00;;
11691;SDS011;33659;42.672;23.354;2023-07-08T10:04:59;5.55;;;4.13;;
11691;SDS011;33659;42.672;23.354;2023-07-08T10:07:31;4.95;;;4.40;;
11691;SDS011;33659;42.672;23.354;2023-07-08T10:09:58;5.82;;;4.35;;
11691;SDS011;33659;42.672;23.354;2023-07-08T10:12:31;4.55;;;4.15;;
11691;SDS011;33659;42.672;23.354;2023-07-08T10:15:00;5.65;;;4.28;;
11691;SDS011;33659;42.672;23.354;2023-07-08T10:17:33;5.25;;;4.10;;
11691;SDS011;33659;42.672;23.354;2023-07-08T10:20:10;5.03;;;3.97;;
11691;SDS011;33659;42.672;23.354;2023-07-08T10:22:39;6.90;;;4.65;;
11691;SDS011;33659;42.672;23.354;2023-07-08T10:25:15;6.45;;;4.85;;
11691;SDS011;33659;42.672;23.354;2023-07-08T10:27:53;4.82;;;4.32;;
11691;SDS011;33659;42.672;23.354;2023-07-08T10:30:29;4.10;;;3.70;;
11691;SDS011;33659;42.672;23.354;2023-07-08T10:33:06;4.63;;;4.07;;
11691;SDS011;33659;42.672;23.354;2023-07-08T10:36:01;8.60;;;3.90;;
11691;SDS011;33659;42.672;23.354;2023-07-08T10:38:43;4.20;;;3.80;;
11691;SDS011;33659;42.672;23.354;2023-07-08T10:41:23;5.25;;;3.35;;
11691;SDS011;33659;42.672;23.354;2023-07-08T10:43:59;4.15;;;3.42;;
11691;SDS011;33659;42.672;23.354;2023-07-08T10:46:37;5.10;;;4.30;;
11691;SDS011;33659;42.672;23.354;2023-07-08T10:49:23;4.03;;;3.63;;
11691;SDS011;33659;42.672;23.354;2023-07-08T10:52:00;5.15;;;3.95;;
11691;SDS011;33659;42.672;23.354;2023-07-08T10:54:46;4.95;;;3.70;;
11691;SDS011;33659;42.672;23.354;2023-07-08T10:57:32;4.78;;;4.05;;
11691;SDS011;33659;42.672;23.354;2023-07-08T11:00:11;4.13;;;3.63;;
11691;SDS011;33659;42.672;23.354;2023-07-08T11:02:54;4.10;;;3.70;;
11691;SDS011;33659;42.672;23.354;2023-07-08T11:05:40;4.47;;;4.07;;
11691;SDS011;33659;42.672;23.354;2023-07-08T11:08:11;4.70;;;3.80;;
11691;SDS011;33659;42.672;23.354;2023-07-08T11:10:47;4.70;;;4.03;;
11691;SDS011;33659;42.672;23.354;2023-07-08T11:13:19;4.80;;;3.75;;
11691;SDS011;33659;42.672;23.354;2023-07-08T11:15:51;3.85;;;3.47;;
11691;SDS011;33659;42.672;23.354;2023-07-08T11:18:25;6.22;;;3.47;;
11691;SDS011;33659;42.672;23.354;2023-07-08T11:21:02;5.20;;;3.60;;
11691;SDS011;33659;42.672;23.354;2023-07-08T11:23:38;4.47;;;3.50;;
11691;SDS011;33659;42.672;23.354;2023-07-08T11:26:18;5.10;;;3.67;;
11691;SDS011;33659;42.672;23.354;2023-07-08T11:28:50;4.43;;;3.38;;
11691;SDS011;33659;42.672;23.354;2023-07-08T11:31:20;4.78;;;3.85;;
11691;SDS011;33659;42.672;23.354;2023-07-08T11:33:49;3.97;;;3.50;;
11691;SDS011;33659;42.672;23.354;2023-07-08T11:36:19;5.70;;;3.80;;
11691;SDS011;33659;42.672;23.354;2023-07-08T11:38:48;4.07;;;3.63;;
11691;SDS011;33659;42.672;23.354;2023-07-08T11:41:17;4.80;;;3.75;;
11691;SDS011;33659;42.672;23.354;2023-07-08T11:43:48;4.28;;;3.67;;
11691;SDS011;33659;42.672;23.354;2023-07-08T11:46:22;5.50;;;3.55;;
11691;SDS011;33659;42.672;23.354;2023-07-08T11:48:53;8.20;;;3.72;;
11691;SDS011;33659;42.672;23.354;2023-07-08T11:51:26;4.95;;;3.75;;
11691;SDS011;33659;42.672;23.354;2023-07-08T11:53:59;3.85;;;3.45;;
11691;SDS011;33659;42.672;23.354;2023-07-08T11:56:46;4.60;;;3.22;;
11691;SDS011;33659;42.672;23.354;2023-07-08T11:59:17;3.47;;;3.17;;
11691;SDS011;33659;42.672;23.354;2023-07-08T12:01:47;4.05;;;3.58;;
11691;SDS011;33659;42.672;23.354;2023-07-08T12:04:26;3.90;;;3.08;;
11691;SDS011;33659;42.672;23.354;2023-07-08T12:07:03;4.50;;;3.67;;
11691;SDS011;33659;42.672;23.354;2023-07-08T12:09:36;3.83;;;3.28;;
11691;SDS011;33659;42.672;23.354;2023-07-08T12:12:06;4.25;;;3.13;;
11691;SDS011;33659;42.672;23.354;2023-07-08T12:14:41;3.95;;;3.22;;
11691;SDS011;33659;42.672;23.354;2023-07-08T12:17:10;3.30;;;3.00;;
11691;SDS011;33659;42.672;23.354;2023-07-08T12:19:38;3.80;;;3.17;;
11691;SDS011;33659;42.672;23.354;2023-07-08T12:22:11;4.55;;;3.05;;
11691;SDS011;33659;42.672;23.354;2023-07-08T12:24:38;3.47;;;3.17;;
11691;SDS011;33659;42.672;23.354;2023-07-08T12:27:08;4.00;;;3.25;;
11691;SDS011;33659;42.672;23.354;2023-07-08T12:29:36;3.22;;;2.92;;
11691;SDS011;33659;42.672;23.354;2023-07-08T12:32:03;3.60;;;3.20;;
11691;SDS011;33659;42.672;23.354;2023-07-08T12:34:31;3.08;;;2.78;;
11691;SDS011;33659;42.672;23.354;2023-07-08T12:36:58;3.05;;;2.72;;
11691;SDS011;33659;42.672;23.354;2023-07-08T12:39:26;4.03;;;3.17;;
11691;SDS011;33659;42.672;23.354;2023-07-08T12:41:59;3.42;;;3.03;;
11691;SDS011;33659;42.672;23.354;2023-07-08T12:44:30;3.70;;;3.17;;
11691;SDS011;33659;42.672;23.354;2023-07-08T12:47:00;4.50;;;2.83;;
11691;SDS011;33659;42.672;23.354;2023-07-08T12:49:28;3.50;;;3.20;;
11691;SDS011;33659;42.672;23.354;2023-07-08T12:51:56;3.30;;;2.78;;
11691;SDS011;33659;42.672;23.354;2023-07-08T12:54:22;5.88;;;3.00;;
11691;SDS011;33659;42.672;23.354;2023-07-08T12:56:52;3.50;;;2.63;;
11691;SDS011;33659;42.672;23.354;2023-07-08T12:59:21;4.90;;;2.80;;
11691;SDS011;33659;42.672;23.354;2023-07-08T13:01:50;2.92;;;2.67;;
11691;SDS011;33659;42.672;23.354;2023-07-08T13:04:19;3.50;;;3.20;;
11691;SDS011;33659;42.672;23.354;2023-07-08T13:06:47;2.88;;;2.60;;
11691;SDS011;33659;42.672;23.354;2023-07-08T13:09:27;3.90;;;2.80;;
11691;SDS011;33659;42.672;23.354;2023-07-08T13:12:05;3.85;;;2.88;;
11691;SDS011;33659;42.672;23.354;2023-07-08T13:14:40;4.20;;;2.70;;
11691;SDS011;33659;42.672;23.354;2023-07-08T13:17:10;4.07;;;3.10;;
11691;SDS011;33659;42.672;23.354;2023-07-08T13:19:39;3.58;;;2.75;;
11691;SDS011;33659;42.672;23.354;2023-07-08T13:22:09;4.35;;;2.97;;
11691;SDS011;33659;42.672;23.354;2023-07-08T13:24:41;3.00;;;2.55;;
11691;SDS011;33659;42.672;23.354;2023-07-08T13:27:13;3.15;;;2.58;;
11691;SDS011;33659;42.672;23.354;2023-07-08T13:29:44;3.58;;;2.70;;
11691;SDS011;33659;42.672;23.354;2023-07-08T13:32:11;4.07;;;2.53;;
11691;SDS011;33659;42.672;23.354;2023-07-08T13:34:40;3.08;;;2.63;;
11691;SDS011;33659;42.672;23.354;2023-07-08T13:37:09;3.92;;;2.50;;
11691;SDS011;33659;42.672;23.354;2023-07-08T13:39:38;2.72;;;2.50;;
11691;SDS011;33659;42.672;23.354;2023-07-08T13:42:12;4.47;;;2.67;;
11691;SDS011;33659;42.672;23.354;2023-07-08T13:44:42;3.60;;;2.63;;
11691;SDS011;33659;42.672;23.354;2023-07-08T13:47:18;3.20;;;2.78;;
11691;SDS011;33659;42.672;23.354;2023-07-08T13:49:47;5.03;;;2.30;;
11691;SDS011;33659;42.672;23.354;2023-07-08T13:52:21;2.78;;;2.50;;
11691;SDS011;33659;42.672;23.354;2023-07-08T13:54:49;2.58;;;2.38;;
11691;SDS011;33659;42.672;23.354;2023-07-08T13:57:20;3.22;;;2.60;;
11691;SDS011;33659;42.672;23.354;2023-07-08T13:59:49;3.15;;;2.70;;
11691;SDS011;33659;42.672;23.354;2023-07-08T14:02:17;3.83;;;2.75;;
11691;SDS011;33659;42.672;23.354;2023-07-08T14:04:46;5.63;;;2.63;;
11691;SDS011;33659;42.672;23.354;2023-07-08T14:07:16;3.03;;;2.67;;
11691;SDS011;33659;42.672;23.354;2023-07-08T14:09:44;3.75;;;2.70;;
11691;SDS011;33659;42.672;23.354;2023-07-08T14:12:11;2.58;;;2.30;;
11691;SDS011;33659;42.672;23.354;2023-07-08T14:14:40;2.50;;;2.28;;
11691;SDS011;33659;42.672;23.354;2023-07-08T14:17:08;4.05;;;2.65;;
11691;SDS011;33659;42.672;23.354;2023-07-08T14:19:39;5.32;;;3.10;;
11691;SDS011;33659;42.672;23.354;2023-07-08T14:22:16;3.08;;;2.78;;
11691;SDS011;33659;42.672;23.354;2023-07-08T14:24:50;2.63;;;2.42;;
11691;SDS011;33659;42.672;23.354;2023-07-08T14:27:17;2.97;;;2.67;;
11691;SDS011;33659;42.672;23.354;2023-07-08T14:29:47;2.60;;;2.38;;
11691;SDS011;33659;42.672;23.354;2023-07-08T14:32:16;3.60;;;2.75;;
11691;SDS011;33659;42.672;23.354;2023-07-08T14:34:48;3.25;;;2.42;;
11691;SDS011;33659;42.672;23.354;2023-07-08T14:37:18;3.22;;;2.72;;
11691;SDS011;33659;42.672;23.354;2023-07-08T14:39:45;2.85;;;2.55;;
11691;SDS011;33659;42.672;23.354;2023-07-08T14:42:12;3.85;;;3.13;;
11691;SDS011;33659;42.672;23.354;2023-07-08T14:44:40;3.65;;;2.40;;